KFFT/FFT METAR and TAF weather

Enter ICAO airport designator
Station Type Date Time Source
KFFT METAR 2021/03/05 11:53 UTC NOAA

KFFT 051153Z AUTO 05008KT 10SM CLR M03/M08 A3028 RMK AO2 SLP259 T10281078 10000 21028 51009


Station Type Date Time Source
KFFT Decoded METAR 2021/03/05 11:53 UTC NOAA

FRANKFORT CAPITAL CITY AIRPORT , KY, United States (KFFT) 38-11N 84-54W 236M
Mar 05, 2021 - 06:53 AM EST / 2021.03.05 1153 UTC
Wind: from the NE (050 degrees) at 9 MPH (8 KT):0
Visibility: 10 mile(s):0
Sky conditions: clear
Temperature: 27.0 F (-2.8 C)
Windchill: 17 F (-8 C):1
Dew Point: 18.0 F (-7.8 C)
Relative Humidity: 68%
Pressure (altimeter): 30.28 in. Hg (1025 hPa)
Pressure tendency: 0.03 inches (0.9 hPa) higher than three hours ago
ob: KFFT 051153Z AUTO 05008KT 10SM CLR M03/M08 A3028 RMK AO2 SLP259 T10281078 10000 21028 51009
cycle: 12

Station Type Date Time Source
KFFT TAF UTC NOAA

Error!

Example: see airport list